sensor_id;sensor_type;location;lat;lon;timestamp;pressure;altitude;pressure_sealevel;temperature;humidity
8140;BME280;4111;50.972;7.072;2023-02-13T00:01:51;103248.19;;;9.73;90.59
8140;BME280;4111;50.972;7.072;2023-02-13T00:04:18;103248.53;;;9.70;90.79
8140;BME280;4111;50.972;7.072;2023-02-13T00:06:45;103240.03;;;9.73;90.76
8140;BME280;4111;50.972;7.072;2023-02-13T00:09:13;103233.25;;;9.69;90.97
8140;BME280;4111;50.972;7.072;2023-02-13T00:11:40;103236.09;;;9.76;90.99
8140;BME280;4111;50.972;7.072;2023-02-13T00:14:06;103238.00;;;9.76;90.96
8140;BME280;4111;50.972;7.072;2023-02-13T00:16:33;103240.16;;;9.80;91.09
8140;BME280;4111;50.972;7.072;2023-02-13T00:18:59;103235.06;;;9.77;90.82
8140;BME280;4111;50.972;7.072;2023-02-13T00:21:26;103231.69;;;9.75;91.04
8140;BME280;4111;50.972;7.072;2023-02-13T00:23:52;103232.06;;;9.72;90.76
8140;BME280;4111;50.972;7.072;2023-02-13T00:26:18;103225.78;;;9.71;90.82
8140;BME280;4111;50.972;7.072;2023-02-13T00:28:45;103222.22;;;9.71;90.96
8140;BME280;4111;50.972;7.072;2023-02-13T00:31:14;103222.06;;;9.72;90.44
8140;BME280;4111;50.972;7.072;2023-02-13T00:33:41;103208.22;;;9.59;90.86
8140;BME280;4111;50.972;7.072;2023-02-13T00:36:12;103221.72;;;9.67;90.94
8140;BME280;4111;50.972;7.072;2023-02-13T00:38:41;103225.16;;;9.61;90.84
8140;BME280;4111;50.972;7.072;2023-02-13T00:41:08;103221.06;;;9.65;90.96
8140;BME280;4111;50.972;7.072;2023-02-13T00:43:35;103222.44;;;9.61;90.98
8140;BME280;4111;50.972;7.072;2023-02-13T00:46:02;103215.19;;;9.62;91.09
8140;BME280;4111;50.972;7.072;2023-02-13T00:48:31;103217.34;;;9.66;90.98
8140;BME280;4111;50.972;7.072;2023-02-13T00:50:58;103215.88;;;9.56;90.83
8140;BME280;4111;50.972;7.072;2023-02-13T00:53:26;103215.03;;;9.55;91.08
8140;BME280;4111;50.972;7.072;2023-02-13T00:55:53;103213.38;;;9.54;91.38
8140;BME280;4111;50.972;7.072;2023-02-13T00:58:20;103211.09;;;9.58;91.18
8140;BME280;4111;50.972;7.072;2023-02-13T01:00:47;103207.38;;;9.59;91.00
8140;BME280;4111;50.972;7.072;2023-02-13T01:03:14;103204.50;;;9.60;90.99
8140;BME280;4111;50.972;7.072;2023-02-13T01:05:42;103204.19;;;9.55;90.99
8140;BME280;4111;50.972;7.072;2023-02-13T01:08:10;103198.41;;;9.58;91.26
8140;BME280;4111;50.972;7.072;2023-02-13T01:10:38;103202.84;;;9.51;91.19
8140;BME280;4111;50.972;7.072;2023-02-13T01:13:05;103205.22;;;9.54;90.78
8140;BME280;4111;50.972;7.072;2023-02-13T01:15:32;103197.25;;;9.52;91.22
8140;BME280;4111;50.972;7.072;2023-02-13T01:17:58;103199.13;;;9.52;91.35
8140;BME280;4111;50.972;7.072;2023-02-13T01:20:27;103204.56;;;9.52;91.23
8140;BME280;4111;50.972;7.072;2023-02-13T01:22:54;103193.72;;;9.52;90.98
8140;BME280;4111;50.972;7.072;2023-02-13T01:25:20;103195.03;;;9.56;90.88
8140;BME280;4111;50.972;7.072;2023-02-13T01:27:47;103195.53;;;9.60;90.70
8140;BME280;4111;50.972;7.072;2023-02-13T01:30:15;103193.34;;;9.55;90.98
8140;BME280;4111;50.972;7.072;2023-02-13T01:32:43;103195.38;;;9.53;90.94
8140;BME280;4111;50.972;7.072;2023-02-13T01:35:11;103194.06;;;9.49;90.94
8140;BME280;4111;50.972;7.072;2023-02-13T01:37:38;103202.19;;;9.49;90.92
8140;BME280;4111;50.972;7.072;2023-02-13T01:40:06;103200.19;;;9.43;91.18
8140;BME280;4111;50.972;7.072;2023-02-13T01:42:34;103197.81;;;9.48;91.23
8140;BME280;4111;50.972;7.072;2023-02-13T01:45:03;103188.63;;;9.49;91.47
8140;BME280;4111;50.972;7.072;2023-02-13T01:47:57;103192.06;;;9.43;91.31
8140;BME280;4111;50.972;7.072;2023-02-13T01:50:36;103185.59;;;9.44;91.43
8140;BME280;4111;50.972;7.072;2023-02-13T01:55:54;103192.59;;;9.38;91.28
8140;BME280;4111;50.972;7.072;2023-02-13T01:58:27;103196.22;;;9.30;91.59
8140;BME280;4111;50.972;7.072;2023-02-13T02:00:55;103198.38;;;9.35;91.74
8140;BME280;4111;50.972;7.072;2023-02-13T02:03:34;103191.41;;;9.41;91.72
8140;BME280;4111;50.972;7.072;2023-02-13T02:06:01;103196.75;;;9.49;91.63
8140;BME280;4111;50.972;7.072;2023-02-13T02:08:29;103194.44;;;9.46;91.65
8140;BME280;4111;50.972;7.072;2023-02-13T02:11:05;103194.44;;;9.46;91.50
8140;BME280;4111;50.972;7.072;2023-02-13T02:13:35;103195.28;;;9.46;91.52
8140;BME280;4111;50.972;7.072;2023-02-13T02:16:01;103191.94;;;9.36;91.81
8140;BME280;4111;50.972;7.072;2023-02-13T02:18:28;103205.19;;;9.31;91.68
8140;BME280;4111;50.972;7.072;2023-02-13T02:24:16;103201.63;;;9.30;91.94
8140;BME280;4111;50.972;7.072;2023-02-13T02:33:01;103196.91;;;9.24;92.05
8140;BME280;4111;50.972;7.072;2023-02-13T02:35:47;103197.09;;;9.23;91.91
8140;BME280;4111;50.972;7.072;2023-02-13T02:41:16;103196.88;;;9.32;92.39
8140;BME280;4111;50.972;7.072;2023-02-13T02:44:19;103188.41;;;9.27;92.09
8140;BME280;4111;50.972;7.072;2023-02-13T02:47:24;103187.78;;;9.17;92.44
8140;BME280;4111;50.972;7.072;2023-02-13T02:53:09;103189.22;;;9.36;92.33
8140;BME280;4111;50.972;7.072;2023-02-13T02:56:12;103196.31;;;9.37;92.19
8140;BME280;4111;50.972;7.072;2023-02-13T02:58:45;103195.53;;;9.28;92.19
8140;BME280;4111;50.972;7.072;2023-02-13T03:01:31;103189.78;;;9.23;92.07
8140;BME280;4111;50.972;7.072;2023-02-13T03:04:31;103190.16;;;9.20;92.36
8140;BME280;4111;50.972;7.072;2023-02-13T03:07:18;103193.03;;;9.19;92.58
8140;BME280;4111;50.972;7.072;2023-02-13T03:09:57;103195.25;;;9.15;92.50
8140;BME280;4111;50.972;7.072;2023-02-13T03:13:00;103199.13;;;9.21;92.38
8140;BME280;4111;50.972;7.072;2023-02-13T03:15:48;103198.47;;;9.19;92.49
8140;BME280;4111;50.972;7.072;2023-02-13T03:18:38;103191.00;;;9.21;92.22
8140;BME280;4111;50.972;7.072;2023-02-13T03:24:35;103193.38;;;9.16;92.23
8140;BME280;4111;50.972;7.072;2023-02-13T03:27:08;103198.69;;;9.09;92.66
8140;BME280;4111;50.972;7.072;2023-02-13T03:29:57;103199.03;;;9.06;92.69
8140;BME280;4111;50.972;7.072;2023-02-13T03:32:41;103195.81;;;9.10;92.93
8140;BME280;4111;50.972;7.072;2023-02-13T03:41:14;103202.84;;;9.20;92.54
8140;BME280;4111;50.972;7.072;2023-02-13T03:46:23;103202.41;;;9.08;92.39
8140;BME280;4111;50.972;7.072;2023-02-13T03:48:52;103199.03;;;9.06;92.43
8140;BME280;4111;50.972;7.072;2023-02-13T03:54:25;103200.22;;;9.03;92.76
8140;BME280;4111;50.972;7.072;2023-02-13T03:57:17;103196.81;;;9.09;92.30
8140;BME280;4111;50.972;7.072;2023-02-13T04:00:06;103193.44;;;9.07;92.36
8140;BME280;4111;50.972;7.072;2023-02-13T04:02:40;103193.25;;;9.09;92.63
8140;BME280;4111;50.972;7.072;2023-02-13T04:05:13;103193.47;;;8.99;92.39
8140;BME280;4111;50.972;7.072;2023-02-13T04:07:40;103193.97;;;9.03;92.42
8140;BME280;4111;50.972;7.072;2023-02-13T04:10:13;103191.94;;;9.05;92.65
8140;BME280;4111;50.972;7.072;2023-02-13T04:15:38;103200.72;;;9.07;92.44
8140;BME280;4111;50.972;7.072;2023-02-13T04:18:28;103202.41;;;9.08;92.40
8140;BME280;4111;50.972;7.072;2023-02-13T04:20:55;103200.00;;;9.13;92.29
8140;BME280;4111;50.972;7.072;2023-02-13T04:23:22;103206.28;;;9.13;92.28
8140;BME280;4111;50.972;7.072;2023-02-13T04:25:51;103195.59;;;9.12;91.96
8140;BME280;4111;50.972;7.072;2023-02-13T04:28:19;103201.38;;;9.09;92.32
8140;BME280;4111;50.972;7.072;2023-02-13T04:30:45;103203.41;;;9.15;92.58
8140;BME280;4111;50.972;7.072;2023-02-13T04:33:12;103196.25;;;9.14;92.02
8140;BME280;4111;50.972;7.072;2023-02-13T04:35:38;103205.78;;;9.10;91.95
8140;BME280;4111;50.972;7.072;2023-02-13T04:38:05;103204.09;;;9.09;92.07
8140;BME280;4111;50.972;7.072;2023-02-13T04:40:31;103203.56;;;9.13;91.87
8140;BME280;4111;50.972;7.072;2023-02-13T04:42:58;103199.03;;;9.06;91.73
8140;BME280;4111;50.972;7.072;2023-02-13T04:45:24;103198.69;;;9.09;91.87
8140;BME280;4111;50.972;7.072;2023-02-13T04:47:53;103199.88;;;9.06;91.58
8140;BME280;4111;50.972;7.072;2023-02-13T04:50:20;103194.31;;;9.00;91.42
8140;BME280;4111;50.972;7.072;2023-02-13T04:52:51;103189.94;;;8.90;91.69
8140;BME280;4111;50.972;7.072;2023-02-13T04:55:18;103195.16;;;9.00;91.65
8140;BME280;4111;50.972;7.072;2023-02-13T04:57:44;103196.00;;;9.01;91.91
8140;BME280;4111;50.972;7.072;2023-02-13T05:00:11;103182.97;;;8.96;91.46
8140;BME280;4111;50.972;7.072;2023-02-13T05:02:37;103186.84;;;9.02;91.33
8140;BME280;4111;50.972;7.072;2023-02-13T05:05:05;103181.47;;;8.93;91.49
8140;BME280;4111;50.972;7.072;2023-02-13T05:07:31;103188.13;;;8.83;91.27
8140;BME280;4111;50.972;7.072;2023-02-13T05:09:58;103190.63;;;8.84;91.09
8140;BME280;4111;50.972;7.072;2023-02-13T05:12:24;103194.03;;;8.78;91.46
8140;BME280;4111;50.972;7.072;2023-02-13T05:14:50;103197.09;;;8.83;91.65
8140;BME280;4111;50.972;7.072;2023-02-13T05:17:17;103194.34;;;8.91;91.00
8140;BME280;4111;50.972;7.072;2023-02-13T05:19:43;103194.00;;;8.95;91.15
8140;BME280;4111;50.972;7.072;2023-02-13T05:22:10;103199.94;;;8.90;91.30
8140;BME280;4111;50.972;7.072;2023-02-13T05:24:55;103191.31;;;8.86;91.03
8140;BME280;4111;50.972;7.072;2023-02-13T05:27:22;103194.88;;;8.87;91.02
8140;BME280;4111;50.972;7.072;2023-02-13T05:29:48;103195.38;;;8.82;91.22
8140;BME280;4111;50.972;7.072;2023-02-13T05:32:14;103199.78;;;8.83;91.44
8140;BME280;4111;50.972;7.072;2023-02-13T05:34:41;103197.38;;;8.88;91.63
8140;BME280;4111;50.972;7.072;2023-02-13T05:37:07;103197.75;;;8.85;91.29
8140;BME280;4111;50.972;7.072;2023-02-13T05:39:34;103194.03;;;8.78;91.49
8140;BME280;4111;50.972;7.072;2023-02-13T05:42:00;103201.16;;;8.79;91.49
8140;BME280;4111;50.972;7.072;2023-02-13T05:44:30;103202.66;;;8.82;91.40
8140;BME280;4111;50.972;7.072;2023-02-13T05:46:57;103207.59;;;8.78;91.29
8140;BME280;4111;50.972;7.072;2023-02-13T05:49:23;103208.28;;;8.72;91.43
8140;BME280;4111;50.972;7.072;2023-02-13T05:51:49;103204.25;;;8.68;91.63
8140;BME280;4111;50.972;7.072;2023-02-13T05:54:17;103200.53;;;8.69;91.71
8140;BME280;4111;50.972;7.072;2023-02-13T05:56:44;103206.44;;;8.64;91.79
8140;BME280;4111;50.972;7.072;2023-02-13T05:59:10;103208.97;;;8.66;91.70
8140;BME280;4111;50.972;7.072;2023-02-13T06:01:37;103202.19;;;8.70;91.50
8140;BME280;4111;50.972;7.072;2023-02-13T06:04:04;103208.13;;;8.73;91.53
8140;BME280;4111;50.972;7.072;2023-02-13T06:06:30;103208.63;;;8.77;91.40
8140;BME280;4111;50.972;7.072;2023-02-13T06:08:56;103209.28;;;8.79;91.41
8140;BME280;4111;50.972;7.072;2023-02-13T06:11:23;103211.34;;;8.77;91.15
8140;BME280;4111;50.972;7.072;2023-02-13T06:13:49;103206.59;;;8.79;91.47
8140;BME280;4111;50.972;7.072;2023-02-13T06:16:16;103209.13;;;8.72;91.13
8140;BME280;4111;50.972;7.072;2023-02-13T06:18:42;103217.63;;;8.69;91.38
8140;BME280;4111;50.972;7.072;2023-02-13T06:21:09;103204.03;;;8.78;92.28
8140;BME280;4111;50.972;7.072;2023-02-13T06:23:35;103205.84;;;8.93;93.41
8140;BME280;4111;50.972;7.072;2023-02-13T06:26:06;103203.19;;;8.85;92.82
8140;BME280;4111;50.972;7.072;2023-02-13T06:28:33;103204.72;;;8.80;92.46
8140;BME280;4111;50.972;7.072;2023-02-13T06:31:00;103197.72;;;8.93;92.40
8140;BME280;4111;50.972;7.072;2023-02-13T06:33:27;103199.00;;;8.66;91.31
8140;BME280;4111;50.972;7.072;2023-02-13T06:35:53;103198.47;;;8.63;91.57
8140;BME280;4111;50.972;7.072;2023-02-13T06:38:20;103204.44;;;8.50;91.10
8140;BME280;4111;50.972;7.072;2023-02-13T06:40:47;103209.03;;;8.41;91.07
8140;BME280;4111;50.972;7.072;2023-02-13T06:43:14;103205.97;;;8.36;91.51
8140;BME280;4111;50.972;7.072;2023-02-13T06:45:41;103200.41;;;8.29;92.05
8140;BME280;4111;50.972;7.072;2023-02-13T06:48:08;103203.44;;;8.18;91.98
8140;BME280;4111;50.972;7.072;2023-02-13T06:50:34;103202.94;;;8.14;91.99
8140;BME280;4111;50.972;7.072;2023-02-13T06:53:00;103199.72;;;8.11;91.99
8140;BME280;4111;50.972;7.072;2023-02-13T06:55:27;103204.28;;;8.10;92.34
8140;BME280;4111;50.972;7.072;2023-02-13T06:57:53;103199.22;;;8.16;92.30
8140;BME280;4111;50.972;7.072;2023-02-13T07:00:20;103207.81;;;8.19;92.17
8140;BME280;4111;50.972;7.072;2023-02-13T07:02:47;103203.94;;;8.13;92.17
8140;BME280;4111;50.972;7.072;2023-02-13T07:05:14;103195.81;;;8.13;92.07
8140;BME280;4111;50.972;7.072;2023-02-13T07:07:41;103195.81;;;8.05;92.31
8140;BME280;4111;50.972;7.072;2023-02-13T07:10:10;103200.06;;;8.08;92.31
8140;BME280;4111;50.972;7.072;2023-02-13T07:12:37;103205.47;;;8.08;92.00
8140;BME280;4111;50.972;7.072;2023-02-13T07:15:04;103203.09;;;8.05;92.23
8140;BME280;4111;50.972;7.072;2023-02-13T07:17:31;103202.09;;;8.06;92.55
8140;BME280;4111;50.972;7.072;2023-02-13T07:19:59;103204.13;;;8.04;92.69
8140;BME280;4111;50.972;7.072;2023-02-13T07:22:25;103205.81;;;8.05;92.86
8140;BME280;4111;50.972;7.072;2023-02-13T07:24:51;103210.03;;;8.07;92.57
8140;BME280;4111;50.972;7.072;2023-02-13T07:27:18;103210.03;;;8.07;92.63
8140;BME280;4111;50.972;7.072;2023-02-13T07:29:44;103208.00;;;8.09;92.77
8140;BME280;4111;50.972;7.072;2023-02-13T07:32:11;103205.97;;;8.11;92.58
8140;BME280;4111;50.972;7.072;2023-02-13T07:34:37;103212.06;;;8.13;92.54
8140;BME280;4111;50.972;7.072;2023-02-13T07:37:14;103207.66;;;8.12;92.34
8140;BME280;4111;50.972;7.072;2023-02-13T07:39:40;103211.06;;;8.14;92.55
8140;BME280;4111;50.972;7.072;2023-02-13T07:42:07;103204.28;;;8.10;92.50
8140;BME280;4111;50.972;7.072;2023-02-13T07:44:33;103211.72;;;8.17;92.40
8140;BME280;4111;50.972;7.072;2023-02-13T07:47:00;103207.34;;;8.16;92.67
8140;BME280;4111;50.972;7.072;2023-02-13T07:49:26;103212.06;;;8.13;92.55
8140;BME280;4111;50.972;7.072;2023-02-13T07:51:55;103216.81;;;8.20;92.49
8140;BME280;4111;50.972;7.072;2023-02-13T07:54:21;103219.53;;;8.20;92.24
8140;BME280;4111;50.972;7.072;2023-02-13T07:56:48;103216.13;;;8.18;92.38
8140;BME280;4111;50.972;7.072;2023-02-13T07:59:14;103208.19;;;8.16;92.34
8140;BME280;4111;50.972;7.072;2023-02-13T08:01:40;103212.06;;;8.22;92.46
8140;BME280;4111;50.972;7.072;2023-02-13T08:04:07;103208.03;;;8.18;92.62
8140;BME280;4111;50.972;7.072;2023-02-13T08:06:33;103216.13;;;8.34;92.27
8140;BME280;4111;50.972;7.072;2023-02-13T08:09:00;103214.09;;;8.36;92.17
8140;BME280;4111;50.972;7.072;2023-02-13T08:11:55;103210.34;;;8.37;92.01
8140;BME280;4111;50.972;7.072;2023-02-13T08:14:24;103210.88;;;8.49;92.09
8140;BME280;4111;50.972;7.072;2023-02-13T08:16:51;103219.50;;;8.44;91.63
8140;BME280;4111;50.972;7.072;2023-02-13T08:19:17;103211.72;;;8.58;91.27
8140;BME280;4111;50.972;7.072;2023-02-13T08:21:44;103215.09;;;8.60;91.58
8140;BME280;4111;50.972;7.072;2023-02-13T08:24:11;103213.06;;;8.62;91.36
8140;BME280;4111;50.972;7.072;2023-02-13T08:26:38;103222.53;;;8.66;91.04
8140;BME280;4111;50.972;7.072;2023-02-13T08:29:05;103221.97;;;8.79;90.79
8140;BME280;4111;50.972;7.072;2023-02-13T08:31:32;103216.34;;;8.88;90.27
8140;BME280;4111;50.972;7.072;2023-02-13T08:33:59;103222.13;;;8.93;89.87
8140;BME280;4111;50.972;7.072;2023-02-13T08:36:25;103222.75;;;9.04;89.40
8140;BME280;4111;50.972;7.072;2023-02-13T08:38:51;103217.66;;;9.09;88.50
8140;BME280;4111;50.972;7.072;2023-02-13T08:41:18;103226.75;;;9.16;88.71
8140;BME280;4111;50.972;7.072;2023-02-13T08:43:48;103229.47;;;9.16;88.31
8140;BME280;4111;50.972;7.072;2023-02-13T08:46:16;103218.56;;;9.32;88.15
8140;BME280;4111;50.972;7.072;2023-02-13T08:48:42;103229.00;;;9.44;87.50
8140;BME280;4111;50.972;7.072;2023-02-13T08:51:10;103231.19;;;9.48;87.10
8140;BME280;4111;50.972;7.072;2023-02-13T08:53:38;103225.88;;;9.55;86.43
8140;BME280;4111;50.972;7.072;2023-02-13T08:56:05;103222.28;;;9.63;85.92
8140;BME280;4111;50.972;7.072;2023-02-13T08:58:31;103220.34;;;9.71;85.61
8140;BME280;4111;50.972;7.072;2023-02-13T09:00:58;103227.78;;;9.78;85.28
8140;BME280;4111;50.972;7.072;2023-02-13T09:03:24;103230.13;;;9.81;85.02
8140;BME280;4111;50.972;7.072;2023-02-13T09:05:51;103231.84;;;9.82;83.92
8140;BME280;4111;50.972;7.072;2023-02-13T09:08:17;103238.88;;;9.91;84.14
8140;BME280;4111;50.972;7.072;2023-02-13T09:10:44;103228.66;;;10.01;83.56
8140;BME280;4111;50.972;7.072;2023-02-13T09:13:11;103230.69;;;9.99;83.09
8140;BME280;4111;50.972;7.072;2023-02-13T09:15:38;103226.59;;;10.03;82.60
8140;BME280;4111;50.972;7.072;2023-02-13T09:18:09;103225.53;;;10.04;82.40
8140;BME280;4111;50.972;7.072;2023-02-13T09:20:35;103227.84;;;10.16;81.97
8140;BME280;4111;50.972;7.072;2023-02-13T09:23:02;103219.63;;;10.24;81.75
8140;BME280;4111;50.972;7.072;2023-02-13T09:25:28;103228.41;;;10.26;81.29
8140;BME280;4111;50.972;7.072;2023-02-13T09:27:55;103226.25;;;10.44;80.87
8140;BME280;4111;50.972;7.072;2023-02-13T09:30:21;103218.03;;;10.52;80.51
8140;BME280;4111;50.972;7.072;2023-02-13T09:32:53;103234.25;;;10.61;80.19
8140;BME280;4111;50.972;7.072;2023-02-13T09:35:20;103221.22;;;10.71;79.76
8140;BME280;4111;50.972;7.072;2023-02-13T09:37:47;103221.59;;;10.68;79.13
8140;BME280;4111;50.972;7.072;2023-02-13T09:40:20;103220.47;;;10.77;79.06
8140;BME280;4111;50.972;7.072;2023-02-13T09:42:48;103213.06;;;10.86;78.90
8140;BME280;4111;50.972;7.072;2023-02-13T09:45:16;103215.03;;;11.07;78.66
8140;BME280;4111;50.972;7.072;2023-02-13T09:47:46;103217.25;;;11.18;78.14
8140;BME280;4111;50.972;7.072;2023-02-13T09:50:18;103218.00;;;11.27;77.74
8140;BME280;4111;50.972;7.072;2023-02-13T09:52:49;103223.78;;;11.39;77.47
8140;BME280;4111;50.972;7.072;2023-02-13T09:55:29;103218.22;;;11.47;77.22
8140;BME280;4111;50.972;7.072;2023-02-13T09:58:18;103220.09;;;11.61;76.94
8140;BME280;4111;50.972;7.072;2023-02-13T10:00:51;103219.97;;;11.69;76.36
8140;BME280;4111;50.972;7.072;2023-02-13T10:03:31;103215.06;;;11.65;74.95
8140;BME280;4111;50.972;7.072;2023-02-13T10:16:32;103209.28;;;11.89;74.30
8140;BME280;4111;50.972;7.072;2023-02-13T10:21:57;103211.03;;;11.97;73.25
8140;BME280;4111;50.972;7.072;2023-02-13T10:29:52;103208.94;;;12.21;72.20
8140;BME280;4111;50.972;7.072;2023-02-13T10:35:37;103212.78;;;12.26;71.82
8140;BME280;4111;50.972;7.072;2023-02-13T10:38:14;103198.44;;;12.46;71.99
8140;BME280;4111;50.972;7.072;2023-02-13T10:40:50;103204.78;;;12.53;71.37
8140;BME280;4111;50.972;7.072;2023-02-13T10:43:20;103207.75;;;12.58;71.15
8140;BME280;4111;50.972;7.072;2023-02-13T10:46:06;103212.16;;;12.59;70.61
8140;BME280;4111;50.972;7.072;2023-02-13T10:56:36;103192.88;;;12.96;69.72
8140;BME280;4111;50.972;7.072;2023-02-13T11:02:00;103194.34;;;13.05;68.89
8140;BME280;4111;50.972;7.072;2023-02-13T11:04:29;103185.78;;;13.15;68.86
8140;BME280;4111;50.972;7.072;2023-02-13T11:07:00;103191.94;;;13.23;68.52
8140;BME280;4111;50.972;7.072;2023-02-13T11:09:29;103183.31;;;13.26;68.17
8140;BME280;4111;50.972;7.072;2023-02-13T11:12:26;103179.41;;;13.36;68.06
8140;BME280;4111;50.972;7.072;2023-02-13T11:15:04;103182.56;;;13.46;67.80
8140;BME280;4111;50.972;7.072;2023-02-13T11:17:34;103172.53;;;13.53;67.45
8140;BME280;4111;50.972;7.072;2023-02-13T11:20:06;103160.78;;;13.59;66.93
8140;BME280;4111;50.972;7.072;2023-02-13T11:22:47;103162.84;;;13.37;66.05
8140;BME280;4111;50.972;7.072;2023-02-13T11:25:21;103163.28;;;13.54;66.13
8140;BME280;4111;50.972;7.072;2023-02-13T11:27:49;103162.28;;;13.68;66.04
8140;BME280;4111;50.972;7.072;2023-02-13T11:33:03;103157.22;;;13.79;65.61
8140;BME280;4111;50.972;7.072;2023-02-13T11:35:33;103156.38;;;13.72;65.37
8140;BME280;4111;50.972;7.072;2023-02-13T11:41:30;103147.13;;;13.79;65.22
8140;BME280;4111;50.972;7.072;2023-02-13T11:43:47;103145.25;;;13.80;65.21
8140;BME280;4111;50.972;7.072;2023-02-13T11:49:04;103128.03;;;13.93;64.68
8140;BME280;4111;50.972;7.072;2023-02-13T11:51:45;103139.78;;;13.93;64.83
8140;BME280;4111;50.972;7.072;2023-02-13T11:56:54;103121.06;;;14.03;64.15
8140;BME280;4111;50.972;7.072;2023-02-13T11:59:37;103118.34;;;14.17;64.27
8140;BME280;4111;50.972;7.072;2023-02-13T12:02:17;103117.69;;;14.28;63.87
8140;BME280;4111;50.972;7.072;2023-02-13T12:04:44;103118.50;;;14.35;63.53
8140;BME280;4111;50.972;7.072;2023-02-13T12:07:16;103112.00;;;14.36;63.32
8140;BME280;4111;50.972;7.072;2023-02-13T12:09:44;103101.88;;;14.43;63.08
8140;BME280;4111;50.972;7.072;2023-02-13T12:12:18;103100.19;;;14.42;63.03
8140;BME280;4111;50.972;7.072;2023-02-13T12:14:48;103101.25;;;14.48;63.18
8140;BME280;4111;50.972;7.072;2023-02-13T12:17:18;103091.97;;;14.56;62.59
8140;BME280;4111;50.972;7.072;2023-02-13T12:19:58;103094.06;;;14.54;62.50
8140;BME280;4111;50.972;7.072;2023-02-13T12:25:41;103082.88;;;14.68;62.24
8140;BME280;4111;50.972;7.072;2023-02-13T12:28:25;103081.56;;;14.84;61.96
8140;BME280;4111;50.972;7.072;2023-02-13T12:31:10;103089.50;;;14.93;61.16
8140;BME280;4111;50.972;7.072;2023-02-13T12:39:24;103076.16;;;15.41;59.52
8140;BME280;4111;50.972;7.072;2023-02-13T12:42:19;103071.13;;;15.63;59.24
8140;BME280;4111;50.972;7.072;2023-02-13T12:45:01;103070.75;;;15.85;58.97
8140;BME280;4111;50.972;7.072;2023-02-13T12:47:41;103067.91;;;16.17;58.72
8140;BME280;4111;50.972;7.072;2023-02-13T12:55:45;103055.41;;;16.58;57.02
8140;BME280;4111;50.972;7.072;2023-02-13T12:58:55;103051.84;;;16.57;56.67
8140;BME280;4111;50.972;7.072;2023-02-13T13:01:25;103046.56;;;16.56;56.60
8140;BME280;4111;50.972;7.072;2023-02-13T13:14:43;103041.25;;;16.42;55.70
8140;BME280;4111;50.972;7.072;2023-02-13T13:22:53;103035.84;;;16.54;54.61
8140;BME280;4111;50.972;7.072;2023-02-13T13:28:39;103028.00;;;16.58;54.42
8140;BME280;4111;50.972;7.072;2023-02-13T13:31:07;103020.78;;;16.45;54.24
8140;BME280;4111;50.972;7.072;2023-02-13T13:33:34;103021.06;;;16.55;54.56
8140;BME280;4111;50.972;7.072;2023-02-13T13:44:47;103012.25;;;16.83;54.21
8140;BME280;4111;50.972;7.072;2023-02-13T13:47:23;103017.53;;;16.66;53.23
8140;BME280;4111;50.972;7.072;2023-02-13T13:49:53;103013.09;;;16.84;53.36
8140;BME280;4111;50.972;7.072;2023-02-13T13:52:32;103010.44;;;17.19;53.57
8140;BME280;4111;50.972;7.072;2023-02-13T13:55:00;103002.47;;;17.53;52.65
8140;BME280;4111;50.972;7.072;2023-02-13T14:02:38;102991.72;;;17.99;50.66
8140;BME280;4111;50.972;7.072;2023-02-13T14:05:28;102990.78;;;18.46;49.45
8140;BME280;4111;50.972;7.072;2023-02-13T14:08:03;102989.50;;;18.94;48.19
8140;BME280;4111;50.972;7.072;2023-02-13T14:13:40;102984.59;;;19.30;45.64
8140;BME280;4111;50.972;7.072;2023-02-13T14:16:10;102980.78;;;19.70;45.72
8140;BME280;4111;50.972;7.072;2023-02-13T14:18:44;102979.19;;;20.13;44.81
8140;BME280;4111;50.972;7.072;2023-02-13T14:21:21;102980.44;;;20.49;44.52
8140;BME280;4111;50.972;7.072;2023-02-13T14:23:48;102973.41;;;20.91;44.02
8140;BME280;4111;50.972;7.072;2023-02-13T14:26:27;102978.00;;;21.07;42.76
8140;BME280;4111;50.972;7.072;2023-02-13T14:28:58;102965.03;;;21.08;42.48
8140;BME280;4111;50.972;7.072;2023-02-13T14:31:29;102973.09;;;21.47;42.00
8140;BME280;4111;50.972;7.072;2023-02-13T14:34:04;102972.47;;;21.87;41.77
8140;BME280;4111;50.972;7.072;2023-02-13T14:36:39;102963.19;;;22.19;41.19
8140;BME280;4111;50.972;7.072;2023-02-13T14:39:19;102965.78;;;22.36;39.73
8140;BME280;4111;50.972;7.072;2023-02-13T14:44:48;102974.94;;;22.47;37.96
8140;BME280;4111;50.972;7.072;2023-02-13T14:47:31;102967.22;;;22.59;37.95
8140;BME280;4111;50.972;7.072;2023-02-13T14:50:00;102973.91;;;22.94;38.07
8140;BME280;4111;50.972;7.072;2023-02-13T14:52:35;102968.59;;;22.56;37.05
8140;BME280;4111;50.972;7.072;2023-02-13T14:55:06;102976.09;;;22.61;37.49
8140;BME280;4111;50.972;7.072;2023-02-13T14:57:44;102972.22;;;22.83;37.67
8140;BME280;4111;50.972;7.072;2023-02-13T15:00:23;102960.06;;;22.99;37.47
8140;BME280;4111;50.972;7.072;2023-02-13T15:02:54;102965.03;;;22.92;36.79
8140;BME280;4111;50.972;7.072;2023-02-13T15:05:31;102957.94;;;22.23;36.61
8140;BME280;4111;50.972;7.072;2023-02-13T15:08:27;102964.50;;;21.96;36.46
8140;BME280;4111;50.972;7.072;2023-02-13T15:10:55;102960.66;;;21.49;36.63
8140;BME280;4111;50.972;7.072;2023-02-13T15:13:34;102962.56;;;20.57;37.98
8140;BME280;4111;50.972;7.072;2023-02-13T15:16:05;102955.69;;;19.88;38.92
8140;BME280;4111;50.972;7.072;2023-02-13T15:18:45;102960.81;;;19.24;40.32
8140;BME280;4111;50.972;7.072;2023-02-13T15:21:16;102958.34;;;18.76;41.20
8140;BME280;4111;50.972;7.072;2023-02-13T15:23:48;102953.72;;;18.36;42.09
8140;BME280;4111;50.972;7.072;2023-02-13T15:26:20;102959.34;;;18.01;43.07
8140;BME280;4111;50.972;7.072;2023-02-13T15:28:58;102955.16;;;17.75;44.10
8140;BME280;4111;50.972;7.072;2023-02-13T15:31:31;102958.53;;;17.41;44.53
8140;BME280;4111;50.972;7.072;2023-02-13T15:34:27;102955.91;;;17.23;44.88
8140;BME280;4111;50.972;7.072;2023-02-13T15:36:55;102955.97;;;16.93;45.02
8140;BME280;4111;50.972;7.072;2023-02-13T15:39:24;102961.22;;;16.82;45.31
8140;BME280;4111;50.972;7.072;2023-02-13T15:41:54;102964.22;;;16.74;45.88
8140;BME280;4111;50.972;7.072;2023-02-13T15:44:25;102960.16;;;16.65;46.25
8140;BME280;4111;50.972;7.072;2023-02-13T15:46:54;102960.34;;;16.52;46.81
8140;BME280;4111;50.972;7.072;2023-02-13T15:49:24;102957.66;;;16.33;47.41
8140;BME280;4111;50.972;7.072;2023-02-13T15:52:04;102960.69;;;16.25;47.64
8140;BME280;4111;50.972;7.072;2023-02-13T15:54:32;102958.75;;;16.14;48.32